^^
Your Local Weather - Clay, NY Station Historical Data
Daily Summary for June 18, 2017 Units:  English    Metric   Both
« Previous Day
Next Day »
Daily Weekly Monthly Yearly Custom
  High: Low: Average:
Temperature: 90.5 °F 69.0 °F 78.2 °F
Dew Point: 70.5 °F 65.6 °F 67.6 °F
Humidity: 91% 46% 72%
Wind Speed: 8.0mph 0.0mph 4mph
Wind Gust: 17.0mph - -
Wind- - SSW
Pressure: 29.73 in 29.54 in -
Precipitation: 0.61 in    
Historical Graphs
 
 
Tabular Data for June 18, 2017
Time Temperature Dew Point Pressure Wind Wind Speed Wind Gust Humidity Rainfall Rate (Hourly) solar
00:04 76.7 °F 66.6 °F 29.73 in South 3.0 mph 5.0 mph 71% 0.00 in 0 W/m2
00:12 76.7 °F 66.6 °F 29.73 in South 4.0 mph 5.0 mph 71% 0.00 in 0 W/m2
00:18 76.6 °F 66.5 °F 29.73 in South 4.0 mph 6.0 mph 71% 0.00 in 0 W/m2
00:23 76.5 °F 66.4 °F 29.73 in SSW 4.0 mph 4.0 mph 71% 0.00 in 0 W/m2
00:30 76.5 °F 66.8 °F 29.73 in SE 4.0 mph 7.0 mph 72% 0.00 in 0 W/m2
00:35 76.3 °F 66.6 °F 29.73 in SSW 4.0 mph 7.0 mph 72% 0.00 in 0 W/m2
00:42 76.2 °F 66.5 °F 29.72 in SE 4.0 mph 9.0 mph 72% 0.00 in 0 W/m2
00:48 76.2 °F 66.5 °F 29.72 in SSE 4.0 mph 9.0 mph 72% 0.00 in 0 W/m2
00:54 76.2 °F 66.9 °F 29.72 in SSE 4.0 mph 7.0 mph 73% 0.00 in 0 W/m2
00:59 76.1 °F 66.8 °F 29.72 in South 4.0 mph 4.0 mph 73% 0.00 in 0 W/m2
01:06 76.2 °F 66.9 °F 29.72 in SSW 5.0 mph 6.0 mph 73% 0.00 in 0 W/m2
01:12 76.2 °F 66.9 °F 29.71 in South 5.0 mph 6.0 mph 73% 0.00 in 0 W/m2
01:18 76.1 °F 66.8 °F 29.71 in SSE 6.0 mph 6.0 mph 73% 0.00 in 0 W/m2
01:24 75.8 °F 66.9 °F 29.70 in SSE 4.0 mph 5.0 mph 74% 0.00 in 0 W/m2
01:30 75.6 °F 66.7 °F 29.71 in South 4.0 mph 4.0 mph 74% 0.00 in 0 W/m2
01:36 75.4 °F 66.9 °F 29.70 in South 4.0 mph 4.0 mph 75% 0.00 in 0 W/m2
01:42 75.3 °F 66.8 °F 29.70 in SSE 2.0 mph 3.0 mph 75% 0.00 in 0 W/m2
01:48 75.3 °F 66.8 °F 29.71 in South 2.0 mph 4.0 mph 75% 0.00 in 0 W/m2
01:54 75.2 °F 66.7 °F 29.70 in SSE 3.0 mph 5.0 mph 75% 0.00 in 0 W/m2
02:00 75.1 °F 67.0 °F 29.70 in South 3.0 mph 4.0 mph 76% 0.00 in 0 W/m2
02:06 75.1 °F 67.0 °F 29.70 in SSE 3.0 mph 4.0 mph 76% 0.00 in 0 W/m2
02:12 74.9 °F 66.8 °F 29.70 in SSE 3.0 mph 3.0 mph 76% 0.00 in 0 W/m2
02:18 74.7 °F 66.6 °F 29.70 in SSE 2.0 mph 3.0 mph 76% 0.00 in 0 W/m2
02:24 74.6 °F 66.9 °F 29.70 in SSE 3.0 mph 3.0 mph 77% 0.00 in 0 W/m2
02:30 74.3 °F 66.6 °F 29.70 in South 2.0 mph 2.0 mph 77% 0.00 in 0 W/m2
02:36 74.3 °F 66.6 °F 29.70 in South 1.0 mph 2.0 mph 77% 0.00 in 0 W/m2
02:42 74.0 °F 66.7 °F 29.70 in SSE 1.0 mph 3.0 mph 78% 0.00 in 0 W/m2
02:48 73.9 °F 66.6 °F 29.69 in South 1.0 mph 3.0 mph 78% 0.00 in 0 W/m2
02:54 73.2 °F 66.3 °F 29.69 in Calm   3.0 mph 79% 0.00 in 0 W/m2
03:00 73.1 °F 66.6 °F 29.69 in SSE 1.0 mph 2.0 mph 80% 0.00 in 0 W/m2
03:06 73.4 °F 66.9 °F 29.69 in SE 1.0 mph 3.0 mph 80% 0.00 in 0 W/m2
03:12 73.5 °F 66.6 °F 29.69 in SSE 2.0 mph 2.0 mph 79% 0.00 in 0 W/m2
03:18 73.3 °F 66.8 °F 29.69 in SSE 1.0 mph 3.0 mph 80% 0.00 in 0 W/m2
03:24 73.3 °F 66.8 °F 29.69 in SSE 1.0 mph 3.0 mph 80% 0.00 in 0 W/m2
03:30 73.1 °F 66.6 °F 29.69 in SSE 1.0 mph 1.0 mph 80% 0.00 in 0 W/m2
03:36 72.8 °F 66.3 °F 29.69 in SSE 1.0 mph 2.0 mph 80% 0.00 in 0 W/m2
03:42 72.5 °F 66.3 °F 29.69 in SE 1.0 mph 1.0 mph 81% 0.00 in 0 W/m2
03:48 72.1 °F 66.3 °F 29.69 in Calm   1.0 mph 82% 0.00 in 0 W/m2
03:54 71.7 °F 66.3 °F 29.69 in Calm     83% 0.00 in 0 W/m2
04:00 71.0 °F 65.9 °F 29.69 in Calm     84% 0.00 in 0 W/m2
04:06 70.7 °F 66.0 °F 29.69 in Calm   2.0 mph 85% 0.00 in 0 W/m2
04:12 70.4 °F 66.0 °F 29.68 in SE 1.0 mph 1.0 mph 86% 0.00 in 0 W/m2
04:18 70.4 °F 66.0 °F 29.68 in Calm   3.0 mph 86% 0.00 in 0 W/m2
04:24 70.3 °F 65.9 °F 29.69 in Calm   2.0 mph 86% 0.00 in 0 W/m2
04:30 70.4 °F 66.0 °F 29.69 in Calm     86% 0.00 in 0 W/m2
04:36 70.7 °F 66.3 °F 29.69 in SSE 1.0 mph 3.0 mph 86% 0.00 in 0 W/m2
04:42 70.9 °F 66.5 °F 29.69 in Calm     86% 0.00 in 0 W/m2
04:48 71.3 °F 66.9 °F 29.69 in SSE 1.0 mph 2.0 mph 86% 0.00 in 0 W/m2
04:54 71.7 °F 66.9 °F 29.69 in SE 2.0 mph 4.0 mph 85% 0.00 in 0 W/m2
05:00 72.0 °F 66.9 °F 29.69 in South 2.0 mph 2.0 mph 84% 0.00 in 0 W/m2
05:06 72.1 °F 66.6 °F 29.69 in SSE 1.0 mph 2.0 mph 83% 0.00 in 0 W/m2
05:12 71.9 °F 66.5 °F 29.69 in SSE 1.0 mph 1.0 mph 83% 0.00 in 0 W/m2
05:18 71.9 °F 66.8 °F 29.69 in SSE 1.0 mph 1.0 mph 84% 0.00 in 0 W/m2
05:24 72.0 °F 66.9 °F 29.70 in SSE 1.0 mph 1.0 mph 84% 0.00 in 0 W/m2
05:30 72.1 °F 66.6 °F 29.70 in SSE 1.0 mph 1.0 mph 83% 0.00 in 7 W/m2
05:36 71.7 °F 66.3 °F 29.70 in SSE 1.0 mph 2.0 mph 83% 0.00 in 9 W/m2
05:42 71.3 °F 66.2 °F 29.70 in Calm     84% 0.00 in 12 W/m2
05:48 70.7 °F 66.0 °F 29.70 in Calm     85% 0.00 in 14 W/m2
05:54 70.5 °F 66.1 °F 29.70 in Calm   1.0 mph 86% 0.00 in 18 W/m2
06:00 70.4 °F 66.3 °F 29.70 in Calm     87% 0.00 in 21 W/m2
06:06 70.3 °F 66.2 °F 29.70 in Calm   3.0 mph 87% 0.00 in 25 W/m2
06:12 71.1 °F 67.0 °F 29.70 in SSE 1.0 mph 2.0 mph 87% 0.00 in 28 W/m2
06:20 72.5 °F 67.7 °F 29.70 in SSW 2.0 mph 5.0 mph 85% 0.00 in 39 W/m2
06:26 73.6 °F 67.8 °F 29.70 in SSW 4.0 mph 7.0 mph 82% 0.00 in 97 W/m2
06:32 74.3 °F 67.7 °F 29.70 in South 3.0 mph 4.0 mph 80% 0.00 in 113 W/m2
06:38 74.7 °F 67.8 °F 29.70 in SSW 3.0 mph 4.0 mph 79% 0.00 in 127 W/m2
06:44 74.9 °F 67.9 °F 29.70 in South 4.0 mph 5.0 mph 79% 0.00 in 141 W/m2
06:50 75.1 °F 67.8 °F 29.69 in South 4.0 mph 4.0 mph 78% 0.00 in 155 W/m2
06:56 75.4 °F 68.1 °F 29.69 in SSE 4.0 mph 6.0 mph 78% 0.00 in 171 W/m2
07:02 75.8 °F 68.1 °F 29.69 in SSW 6.0 mph 7.0 mph 77% 0.00 in 190 W/m2
07:08 76.1 °F 68.4 °F 29.69 in SSW 6.0 mph 10.0 mph 77% 0.00 in 206 W/m2
07:14 76.4 °F 68.3 °F 29.69 in SW 6.0 mph 10.0 mph 76% 0.00 in 223 W/m2
07:20 76.7 °F 68.2 °F 29.69 in SSE 6.0 mph 6.0 mph 75% 0.00 in 237 W/m2
07:26 77.0 °F 68.5 °F 29.69 in SSW 5.0 mph 6.0 mph 75% 0.00 in 253 W/m2
07:32 77.3 °F 68.4 °F 29.68 in South 5.0 mph 7.0 mph 74% 0.00 in 276 W/m2
07:38 77.5 °F 68.6 °F 29.68 in SSW 5.0 mph 7.0 mph 74% 0.00 in 294 W/m2
07:44 77.8 °F 68.4 °F 29.68 in SSW 6.0 mph 6.0 mph 73% 0.00 in 308 W/m2
07:50 78.1 °F 68.7 °F 29.68 in South 6.0 mph 6.0 mph 73% 0.00 in 325 W/m2
07:56 78.4 °F 69.0 °F 29.68 in SW 5.0 mph 6.0 mph 73% 0.00 in 341 W/m2
08:02 78.7 °F 68.9 °F 29.68 in SW 5.0 mph 9.0 mph 72% 0.00 in 360 W/m2
08:08 78.9 °F 68.7 °F 29.68 in SSW 7.0 mph 9.0 mph 71% 0.00 in 376 W/m2
08:14 79.1 °F 68.9 °F 29.68 in SSE 7.0 mph 7.0 mph 71% 0.00 in 390 W/m2
08:20 79.3 °F 68.7 °F 29.68 in South 7.0 mph 7.0 mph 70% 0.00 in 408 W/m2
08:26 79.7 °F 69.0 °F 29.68 in South 7.0 mph 7.0 mph 70% 0.00 in 425 W/m2
08:32 80.1 °F 69.4 °F 29.68 in SE 5.0 mph 6.0 mph 70% 0.00 in 443 W/m2
08:38 80.4 °F 68.9 °F 29.68 in SSW 5.0 mph 9.0 mph 68% 0.00 in 461 W/m2
08:44 80.4 °F 69.3 °F 29.68 in SSW 6.0 mph 9.0 mph 69% 0.00 in 478 W/m2
08:50 80.6 °F 69.1 °F 29.67 in SSW 6.0 mph 7.0 mph 68% 0.00 in 497 W/m2
08:56 80.8 °F 69.2 °F 29.67 in SW 7.0 mph 9.0 mph 68% 0.00 in 473 W/m2
09:02 81.0 °F 69.0 °F 29.67 in SSE 7.0 mph 7.0 mph 67% 0.00 in 527 W/m2
09:08 81.3 °F 69.3 °F 29.67 in SSE 6.0 mph 7.0 mph 67% 0.00 in 531 W/m2
09:14 81.3 °F 68.9 °F 29.67 in SSW 7.0 mph 11.0 mph 66% 0.00 in 550 W/m2
09:20 81.5 °F 69.5 °F 29.67 in SSE 7.0 mph 7.0 mph 67% 0.00 in 566 W/m2
09:26 81.4 °F 69.4 °F 29.67 in South 8.0 mph 11.0 mph 67% 0.00 in 589 W/m2
09:32 81.7 °F 69.7 °F 29.67 in SSW 8.0 mph 15.0 mph 67% 0.00 in 617 W/m2
09:38 81.8 °F 69.8 °F 29.66 in SSW 7.0 mph 15.0 mph 67% 0.00 in 615 W/m2
09:44 82.1 °F 69.6 °F 29.66 in SSW 7.0 mph 7.0 mph 66% 0.00 in 617 W/m2
09:50 82.0 °F 69.5 °F 29.66 in South 7.0 mph 7.0 mph 66% 0.00 in 649 W/m2
09:56 82.2 °F 69.7 °F 29.66 in SSE 8.0 mph 9.0 mph 66% 0.00 in 633 W/m2
10:02 82.5 °F 70.4 °F 29.66 in South 6.0 mph 7.0 mph 67% 0.00 in 638 W/m2
10:08 82.8 °F 70.3 °F 29.66 in South 6.0 mph 10.0 mph 66% 0.00 in 612 W/m2
10:14 83.0 °F 69.6 °F 29.66 in SSE 6.0 mph 10.0 mph 64% 0.00 in 675 W/m2
10:20 83.4 °F 69.9 °F 29.65 in SW 7.0 mph 7.0 mph 64% 0.00 in 698 W/m2
10:26 83.4 °F 69.5 °F 29.65 in SSW 7.0 mph 9.0 mph 63% 0.00 in 628 W/m2
10:32 83.5 °F 70.0 °F 29.65 in SW 7.0 mph 7.0 mph 64% 0.00 in 705 W/m2
10:38 84.0 °F 70.0 °F 29.65 in South 6.0 mph 11.0 mph 63% 0.00 in 788 W/m2
10:44 84.1 °F 69.7 °F 29.65 in SE 6.0 mph 7.0 mph 62% 0.00 in 779 W/m2
10:50 84.2 °F 69.3 °F 29.64 in South 7.0 mph 14.0 mph 61% 0.00 in 788 W/m2
10:56 84.2 °F 69.8 °F 29.64 in SW 7.0 mph 14.0 mph 62% 0.00 in 765 W/m2
11:02 84.6 °F 68.7 °F 29.64 in SE 7.0 mph 10.0 mph 59% 0.00 in 853 W/m2
11:08 84.5 °F 69.1 °F 29.64 in South 8.0 mph 10.0 mph 60% 0.00 in 846 W/m2
11:14 84.6 °F 69.2 °F 29.64 in South 7.0 mph 8.0 mph 60% 0.00 in 840 W/m2
11:20 85.0 °F 70.5 °F 29.64 in SW 6.0 mph 6.0 mph 62% 0.00 in 896 W/m2
11:26 85.4 °F 69.4 °F 29.64 in SSE 6.0 mph 12.0 mph 59% 0.00 in 796 W/m2
11:32 84.9 °F 69.5 °F 29.64 in SSW 7.0 mph 7.0 mph 60% 0.00 in 940 W/m2
11:38 85.0 °F 69.1 °F 29.63 in WSW 7.0 mph 9.0 mph 59% 0.00 in 942 W/m2
11:44 85.0 °F 69.6 °F 29.62 in West 7.0 mph 8.0 mph 60% 0.00 in 923 W/m2
11:50 85.7 °F 70.2 °F 29.62 in SSW 7.0 mph 11.0 mph 60% 0.00 in 888 W/m2
11:56 85.9 °F 69.9 °F 29.62 in South 6.0 mph 11.0 mph 59% 0.00 in 290 W/m2
12:03 86.1 °F 68.6 °F 29.62 in SSE 5.0 mph 8.0 mph 56% 0.00 in 976 W/m2
12:08 85.9 °F 68.9 °F 29.62 in SSW 6.0 mph 10.0 mph 57% 0.00 in 984 W/m2
12:14 86.5 °F 69.5 °F 29.61 in SW 6.0 mph 8.0 mph 57% 0.00 in 1032 W/m2
12:20 87.2 °F 70.1 °F 29.61 in SSE 6.0 mph 6.0 mph 57% 0.00 in 1090 W/m2
12:26 87.3 °F 68.6 °F 29.61 in South 6.0 mph 13.0 mph 54% 0.00 in 710 W/m2
12:32 87.4 °F 67.6 °F 29.61 in South 7.0 mph 12.0 mph 52% 0.00 in 622 W/m2
12:38 87.7 °F 70.1 °F 29.61 in SSW 6.0 mph 12.0 mph 56% 0.00 in 1179 W/m2
12:44 87.7 °F 68.4 °F 29.61 in South 7.0 mph 15.0 mph 53% 0.00 in 696 W/m2
12:50 87.6 °F 67.8 °F 29.61 in SSW 7.0 mph 7.0 mph 52% 0.00 in 696 W/m2
12:56 87.8 °F 69.1 °F 29.61 in SSE 7.0 mph 9.0 mph 54% 0.00 in 241 W/m2
13:02 87.4 °F 67.1 °F 29.61 in WNW 7.0 mph 7.0 mph 51% 0.00 in 272 W/m2
13:08 87.2 °F 67.4 °F 29.61 in SW 6.0 mph 7.0 mph 52% 0.00 in 997 W/m2
13:14 87.2 °F 67.4 °F 29.61 in SW 6.0 mph 6.0 mph 52% 0.00 in 269 W/m2
13:20 87.2 °F 68.0 °F 29.60 in SW 6.0 mph 7.0 mph 53% 0.00 in 230 W/m2
13:26 87.8 °F 68.0 °F 29.60 in SSW 7.0 mph 7.0 mph 52% 0.00 in 942 W/m2
13:32 88.0 °F 67.6 °F 29.60 in South 7.0 mph 9.0 mph 51% 0.00 in 1058 W/m2
13:38 87.9 °F 67.5 °F 29.59 in South 8.0 mph 17.0 mph 51% 0.00 in 995 W/m2
13:44 88.8 °F 67.8 °F 29.59 in South 7.0 mph 8.0 mph 50% 0.00 in 1041 W/m2
13:50 89.0 °F 68.5 °F 29.59 in SSE 6.0 mph 14.0 mph 51% 0.00 in 1051 W/m2
13:56 89.2 °F 66.9 °F 29.59 in SSW 7.0 mph 14.0 mph 48% 0.00 in 986 W/m2
14:02 89.1 °F 68.6 °F 29.58 in WSW 7.0 mph 7.0 mph 51% 0.00 in 983 W/m2
14:08 89.9 °F 68.2 °F 29.58 in South 5.0 mph 7.0 mph 49% 0.00 in 1044 W/m2
14:16 89.1 °F 67.5 °F 29.58 in SE 6.0 mph 9.0 mph 49% 0.00 in 327 W/m2
14:22 89.4 °F 67.7 °F 29.58 in South 7.0 mph 7.0 mph 49% 0.00 in 1028 W/m2
14:28 89.5 °F 66.6 °F 29.58 in SW 8.0 mph 12.0 mph 47% 0.00 in 1113 W/m2
14:34 89.4 °F 66.5 °F 29.58 in South 8.0 mph 13.0 mph 47% 0.00 in 434 W/m2
14:40 89.1 °F 65.6 °F 29.58 in SSE 8.0 mph 8.0 mph 46% 0.00 in 348 W/m2
14:46 88.4 °F 66.2 °F 29.58 in SSW 7.0 mph 10.0 mph 48% 0.00 in 294 W/m2
14:52 89.1 °F 68.0 °F 29.57 in SSE 7.0 mph 9.0 mph 50% 0.00 in 501 W/m2
14:58 89.2 °F 68.1 °F 29.57 in SSE 7.0 mph 13.0 mph 50% 0.00 in 336 W/m2
15:04 88.8 °F 68.3 °F 29.57 in SSE 7.0 mph 7.0 mph 51% 0.00 in 315 W/m2
15:10 88.3 °F 67.9 °F 29.56 in SW 7.0 mph 7.0 mph 51% 0.00 in 204 W/m2
15:16 88.1 °F 67.7 °F 29.56 in South 6.0 mph 7.0 mph 51% 0.00 in 396 W/m2
15:22 88.6 °F 67.6 °F 29.56 in South 6.0 mph 6.0 mph 50% 0.00 in 914 W/m2
15:28 88.9 °F 68.4 °F 29.56 in South 7.0 mph 12.0 mph 51% 0.00 in 292 W/m2
15:34 88.8 °F 68.3 °F 29.56 in SW 6.0 mph 7.0 mph 51% 0.00 in 330 W/m2
15:40 88.9 °F 68.4 °F 29.56 in SW 6.0 mph 7.0 mph 51% 0.00 in 970 W/m2
15:46 88.8 °F 67.8 °F 29.56 in SW 7.0 mph 8.0 mph 50% 0.00 in 397 W/m2
15:52 88.8 °F 67.2 °F 29.56 in South 7.0 mph 8.0 mph 49% 0.00 in 441 W/m2
15:58 89.2 °F 67.5 °F 29.55 in SSW 7.0 mph 9.0 mph 49% 0.00 in 932 W/m2
16:04 89.7 °F 68.6 °F 29.55 in SW 6.0 mph 7.0 mph 50% 0.00 in 244 W/m2
16:10 89.7 °F 66.8 °F 29.55 in West 7.0 mph 7.0 mph 47% 0.00 in 756 W/m2
16:16 90.1 °F 68.4 °F 29.55 in WSW 7.0 mph 8.0 mph 49% 0.00 in 714 W/m2
16:22 90.4 °F 67.4 °F 29.55 in SSE 5.0 mph 9.0 mph 47% 0.00 in 592 W/m2
16:28 90.5 °F 68.7 °F 29.55 in SSE 5.0 mph 9.0 mph 49% 0.00 in 274 W/m2
16:34 89.6 °F 66.7 °F 29.55 in SSE 5.0 mph 7.0 mph 47% 0.00 in 772 W/m2
16:40 90.3 °F 67.3 °F 29.54 in SW 6.0 mph 9.0 mph 47% 0.00 in 144 W/m2
16:46 89.1 °F 66.9 °F 29.54 in SSE 6.0 mph 9.0 mph 48% 0.00 in 156 W/m2
16:52 88.6 °F 65.8 °F 29.54 in SSW 6.0 mph 7.0 mph 47% 0.00 in 162 W/m2
16:58 88.6 °F 67.6 °F 29.54 in SSW 7.0 mph 7.0 mph 50% 0.00 in 227 W/m2
17:06 88.4 °F 68.0 °F 29.54 in SSW 7.0 mph 13.0 mph 51% 0.00 in 290 W/m2
17:12 88.7 °F 68.2 °F 29.54 in South 7.0 mph 9.0 mph 51% 0.00 in 288 W/m2
17:18 89.2 °F 68.1 °F 29.54 in SSW 7.0 mph 9.0 mph 50% 0.00 in 267 W/m2
17:24 89.2 °F 68.7 °F 29.54 in WSW 7.0 mph 11.0 mph 51% 0.00 in 144 W/m2
17:30 88.6 °F 67.6 °F 29.54 in SW 6.0 mph 6.0 mph 50% 0.00 in 70 W/m2
17:36 86.8 °F 68.7 °F 29.55 in NW 4.0 mph 6.0 mph 55% 0.00 in 40 W/m2
17:42 82.9 °F 67.1 °F 29.54 in NW 2.0 mph 5.0 mph 59% 0.00 in 33 W/m2
17:48 80.8 °F 67.9 °F 29.55 in WNW 2.0 mph 5.0 mph 65% 0.00 in 30 W/m2
17:54 79.3 °F 68.7 °F 29.56 in NW 2.0 mph 6.0 mph 70% 0.00 in 25 W/m2
18:00 77.8 °F 68.4 °F 29.56 in NNW 3.0 mph 5.0 mph 73% 0.00 in 114 W/m2
18:06 76.8 °F 69.0 °F 29.56 in NNW 4.0 mph 5.0 mph 77% 0.00 in 104 W/m2
18:12 76.2 °F 69.6 °F 29.56 in North 2.0 mph 4.0 mph 80% 0.00 in 128 W/m2
18:18 75.8 °F 69.2 °F 29.56 in North 1.0 mph 4.0 mph 80% 0.00 in 155 W/m2
18:24 75.6 °F 69.4 °F 29.56 in NNW 2.0 mph 3.0 mph 81% 0.00 in 93 W/m2
18:30 75.4 °F 69.5 °F 29.56 in NNW 2.0 mph 2.0 mph 82% 0.00 in 79 W/m2
18:36 75.2 °F 69.3 °F 29.58 in NNW 1.0 mph 2.0 mph 82% 0.00 in 30 W/m2
18:42 75.1 °F 69.2 °F 29.59 in West 2.0 mph 4.0 mph 82% 0.00 in 35 W/m2
18:48 75.3 °F 69.4 °F 29.58 in South 2.0 mph 4.0 mph 82% 0.00 in 88 W/m2
18:54 75.4 °F 69.5 °F 29.57 in South 1.0 mph 2.0 mph 82% 0.00 in 46 W/m2
19:00 76.2 °F 69.2 °F 29.56 in South 2.0 mph 3.0 mph 79% 0.00 in 44 W/m2
19:06 77.0 °F 68.9 °F 29.56 in SSE 3.0 mph 3.0 mph 76% 0.00 in 40 W/m2
19:12 77.8 °F 68.8 °F 29.58 in South 3.0 mph 4.0 mph 74% 0.00 in 18 W/m2
19:18 77.5 °F 70.1 °F 29.61 in West 3.0 mph 4.0 mph 78% 0.00 in 0 W/m2
19:26 74.0 °F 67.8 °F 29.61 in NW 4.0 mph 4.0 mph 81% 0.00 in 0 W/m2
19:32 71.8 °F 66.7 °F 29.62 in West 3.0 mph 4.0 mph 84% 0.51 in 0 W/m2
19:38 70.4 °F 66.0 °F 29.62 in West 2.0 mph 3.0 mph 86% 0.12 in 0 W/m2
19:44 69.9 °F 65.9 °F 29.62 in SW 2.0 mph 3.0 mph 87% 0.77 in 0 W/m2
19:50 69.6 °F 65.9 °F 29.63 in West 2.0 mph 4.0 mph 88% 1.15 in 0 W/m2
19:56 69.2 °F 65.8 °F 29.62 in South 4.0 mph 4.0 mph 89% 1.28 in 0 W/m2
20:02 69.0 °F 65.9 °F 29.62 in South 4.0 mph 7.0 mph 90% 0.27 in 0 W/m2
20:08 69.0 °F 65.9 °F 29.62 in SW 5.0 mph 7.0 mph 90% 0.08 in 0 W/m2
20:14 69.1 °F 66.0 °F 29.62 in SSW 4.0 mph 5.0 mph 90% 0.05 in 0 W/m2
20:20 69.0 °F 65.9 °F 29.61 in South 3.0 mph 3.0 mph 90% 0.00 in 0 W/m2
20:26 69.0 °F 66.3 °F 29.61 in SSW 2.0 mph 4.0 mph 91% 0.00 in 0 W/m2
20:32 69.0 °F 66.3 °F 29.61 in SSW 1.0 mph 1.0 mph 91% 0.00 in 0 W/m2
20:38 69.1 °F 66.4 °F 29.61 in Calm   1.0 mph 91% 0.09 in 0 W/m2
20:44 69.1 °F 66.4 °F 29.60 in Calm   2.0 mph 91% 0.07 in 0 W/m2
20:50 69.1 °F 66.4 °F 29.60 in Calm     91% 0.07 in 0 W/m2
20:56 69.2 °F 66.5 °F 29.61 in Calm   2.0 mph 91% 0.05 in 0 W/m2
21:02 69.2 °F 66.5 °F 29.61 in SW 1.0 mph 1.0 mph 91% 0.00 in 0 W/m2
21:08 69.3 °F 66.6 °F 29.62 in SSE 1.0 mph 4.0 mph 91% 0.00 in 0 W/m2
21:14 69.4 °F 66.7 °F 29.62 in SSE 3.0 mph 5.0 mph 91% 0.00 in 0 W/m2
21:20 69.5 °F 66.8 °F 29.61 in SSW 2.0 mph 2.0 mph 91% 0.00 in 0 W/m2
21:26 69.6 °F 66.9 °F 29.62 in SSE 2.0 mph 3.0 mph 91% 0.00 in 0 W/m2
21:32 69.6 °F 66.5 °F 29.62 in SSE 2.0 mph 2.0 mph 90% 0.00 in 0 W/m2
21:38 69.6 °F 66.5 °F 29.62 in SSE 2.0 mph 3.0 mph 90% 0.00 in 0 W/m2
21:44 69.7 °F 66.6 °F 29.62 in South 2.0 mph 5.0 mph 90% 0.00 in 0 W/m2
21:50 69.7 °F 66.6 °F 29.62 in SSE 2.0 mph 2.0 mph 90% 0.00 in 0 W/m2
21:56 69.7 °F 66.6 °F 29.63 in SSE 1.0 mph 2.0 mph 90% 0.00 in 0 W/m2
22:02 69.7 °F 66.6 °F 29.64 in South 1.0 mph 3.0 mph 90% 0.00 in 0 W/m2
22:08 69.9 °F 66.8 °F 29.64 in South 2.0 mph 3.0 mph 90% 0.00 in 0 W/m2
22:14 69.9 °F 66.8 °F 29.64 in South 1.0 mph 2.0 mph 90% 0.00 in 0 W/m2
22:20 69.8 °F 66.7 °F 29.64 in Calm   2.0 mph 90% 0.00 in 0 W/m2
22:26 69.9 °F 66.8 °F 29.65 in SSW 2.0 mph 2.0 mph 90% 0.00 in 0 W/m2
22:32 70.1 °F 67.0 °F 29.64 in SW 3.0 mph 3.0 mph 90% 0.00 in 0 W/m2
22:38 70.2 °F 66.8 °F 29.64 in South 3.0 mph 3.0 mph 89% 0.00 in 0 W/m2
22:44 70.2 °F 66.8 °F 29.64 in South 2.0 mph 3.0 mph 89% 0.00 in 0 W/m2
22:50 70.2 °F 66.8 °F 29.64 in South 2.0 mph 3.0 mph 89% 0.00 in 0 W/m2
22:56 70.1 °F 66.7 °F 29.63 in SSE 2.0 mph 3.0 mph 89% 0.00 in 0 W/m2
23:03 70.1 °F 66.7 °F 29.63 in South 2.0 mph 2.0 mph 89% 0.00 in 0 W/m2
23:08 70.0 °F 66.6 °F 29.62 in South 1.0 mph 2.0 mph 89% 0.00 in 0 W/m2
23:14 69.9 °F 66.5 °F 29.63 in South 1.0 mph 2.0 mph 89% 0.00 in 0 W/m2
23:20 70.0 °F 66.6 °F 29.63 in South 1.0 mph 1.0 mph 89% 0.00 in 0 W/m2
23:26 69.9 °F 66.5 °F 29.63 in South 1.0 mph 1.0 mph 89% 0.00 in 0 W/m2
23:32 69.8 °F 66.4 °F 29.63 in Calm   3.0 mph 89% 0.00 in 0 W/m2
23:38 69.8 °F 66.4 °F 29.63 in South 1.0 mph 3.0 mph 89% 0.00 in 0 W/m2
23:44 69.7 °F 66.6 °F 29.63 in South 1.0 mph 2.0 mph 90% 0.00 in 0 W/m2
23:50 69.7 °F 66.6 °F 29.64 in South 1.0 mph 1.0 mph 90% 0.00 in 0 W/m2
23:56 69.8 °F 66.7 °F 29.64 in South 1.0 mph 2.0 mph 90% 0.00 in 0 W/m2
Country Meadow, Clay, NY, USA
Compliments of Weather Underground - 2 mb